Time;durP1;ratioP1;P1;durP2;ratioP2;P2;SDS_P1;SDS_P2;PMS_P1;PMS_P2;Temp;Humidity;BMP_temperature;BMP_pressure;BME280_temperature;BME280_humidity;BME280_pressure;Samples;Min_cycle;Max_cycle;Signal;HPM_P1;HPM_P2
2022/01/26 00:07:04;;;;;;;;;31.75;29.50;;;;;-147.17;100.00;50436.53;5010820;28;51658;-60
2022/01/26 00:09:29;;;;;;;;;37.00;34.50;;;;;-147.17;100.00;50466.06;5017475;28;51685;-61
2022/01/26 00:11:55;;;;;;;;;31.50;29.50;;;;;-147.17;100.00;50446.38;5012400;28;51283;-60
2022/01/26 00:14:21;;;;;;;;;36.25;34.00;;;;;-147.17;100.00;50458.19;5020869;28;51271;-60
2022/01/26 00:16:46;;;;;;;;;33.25;27.25;;;;;-147.17;100.00;50481.81;5022967;28;51586;-61
2022/01/26 00:19:18;;;;;;;;;33.75;30.50;;;;;-147.17;100.00;50481.81;5011257;28;51478;-61
2022/01/26 00:21:49;;;;;;;;;40.50;32.25;;;;;-147.17;100.00;50454.25;5018608;28;51105;-61
2022/01/26 00:29:28;;;;;;;;;34.50;28.75;;;;;-147.17;100.00;50481.81;5015852;28;51162;-61
2022/01/26 00:40:42;;;;;;;;;26.25;23.75;;;;;-147.17;100.00;50491.66;5019732;28;51201;-62
2022/01/26 00:43:20;;;;;;;;;30.75;28.50;;;;;-147.17;100.00;50438.50;5014977;28;51158;-62
2022/01/26 00:45:49;;;;;;;;;33.75;32.75;;;;;-147.17;100.00;50485.75;5015902;28;51288;-61
2022/01/26 00:48:19;;;;;;;;;33.50;30.75;;;;;-147.17;100.00;50464.09;5005801;28;53991;-61
2022/01/26 00:50:50;;;;;;;;;34.25;29.75;;;;;-147.17;100.00;50422.75;5015021;28;51130;-61
2022/01/26 00:53:15;;;;;;;;;38.25;32.50;;;;;-147.17;100.00;50460.16;5019992;28;51138;-60
2022/01/26 00:55:41;;;;;;;;;30.00;25.50;;;;;-147.17;100.00;50477.88;5015964;28;51312;-59
2022/01/26 00:58:06;;;;;;;;;27.00;24.50;;;;;-147.17;100.00;50473.94;5022845;28;51819;-61
2022/01/26 01:00:31;;;;;;;;;29.00;26.00;;;;;-147.17;100.00;50446.38;5017889;28;51039;-60
2022/01/26 01:02:58;;;;;;;;;29.25;27.25;;;;;-147.17;100.00;50422.75;5021124;28;51236;-60
2022/01/26 01:05:31;;;;;;;;;31.50;26.75;;;;;-147.17;100.00;50462.13;5019048;28;51096;-60
2022/01/26 01:08:04;;;;;;;;;32.25;29.25;;;;;-147.17;100.00;50450.31;5015922;28;52725;-61
2022/01/26 01:10:30;;;;;;;;;29.50;26.25;;;;;-147.17;100.00;50450.31;5017053;28;51124;-59
2022/01/26 01:12:57;;;;;;;;;29.00;28.50;;;;;-147.17;100.00;50436.53;5006605;28;51416;-61
2022/01/26 01:15:25;;;;;;;;;28.50;25.25;;;;;-147.17;100.00;50446.38;5013354;28;51312;-61
2022/01/26 01:17:56;;;;;;;;;30.00;28.50;;;;;-147.17;100.00;50458.19;5015118;28;52737;-62
2022/01/26 01:28:23;;;;;;;;;38.75;31.50;;;;;-147.17;100.00;50460.16;5028210;28;51476;-61
2022/01/26 01:30:54;;;;;;;;;33.00;29.75;;;;;-147.17;100.00;50456.22;5016667;28;51271;-60
2022/01/26 01:33:25;;;;;;;;;34.50;31.50;;;;;-147.17;100.00;50471.97;5031960;28;51161;-61
2022/01/26 01:35:52;;;;;;;;;29.25;23.75;;;;;-147.17;100.00;50477.88;5024636;28;51160;-62
2022/01/26 01:38:18;;;;;;;;;29.00;27.00;;;;;-147.17;100.00;50470.00;5023430;28;51743;-62
2022/01/26 01:40:47;;;;;;;;;36.75;32.25;;;;;-147.17;100.00;50479.84;5021955;28;51095;-62
2022/01/26 01:43:14;;;;;;;;;28.00;26.25;;;;;-147.17;100.00;50487.72;5014924;28;50917;-62
2022/01/26 01:45:45;;;;;;;;;31.25;29.00;;;;;-147.17;100.00;50466.06;5031589;28;50934;-61
2022/01/26 01:48:17;;;;;;;;;37.00;27.25;;;;;-147.17;100.00;50462.13;5019069;28;51176;-61
2022/01/26 01:50:43;;;;;;;;;31.75;30.50;;;;;-147.17;100.00;50466.06;5029957;28;51220;-61
2022/01/26 01:53:15;;;;;;;;;26.50;24.75;;;;;-147.17;100.00;50489.69;5015043;28;51244;-62
2022/01/26 01:55:43;;;;;;;;;28.00;26.25;;;;;-147.17;100.00;50458.19;5014406;28;51093;-62
2022/01/26 01:58:09;;;;;;;;;31.00;27.25;;;;;-147.17;100.00;50485.75;5030537;28;51315;-61
2022/01/26 02:00:36;;;;;;;;;25.25;24.00;;;;;-147.17;100.00;50477.88;5031622;28;51008;-61
2022/01/26 02:03:03;;;;;;;;;28.50;28.25;;;;;-147.17;100.00;50438.50;5026669;28;51121;-61
2022/01/26 02:05:28;;;;;;;;;27.50;24.25;;;;;-147.17;100.00;50466.06;5032122;28;51360;-61
2022/01/26 02:07:54;;;;;;;;;30.50;28.50;;;;;-147.17;100.00;50495.59;5030484;28;51237;-61
2022/01/26 02:10:22;;;;;;;;;32.75;31.25;;;;;-147.17;100.00;50444.41;5022827;28;51035;-61
2022/01/26 02:12:51;;;;;;;;;30.75;28.75;;;;;-147.17;100.00;50477.88;5023054;28;51400;-61
2022/01/26 02:15:22;;;;;;;;;34.50;28.00;;;;;-147.17;100.00;50458.19;5026463;28;51153;-61
2022/01/26 02:56:08;;;;;;;;;25.00;24.25;;;;;-147.17;100.00;50446.38;5029513;28;50907;-62
2022/01/26 03:03:40;;;;;;;;;22.25;21.50;;;;;-147.17;100.00;50442.44;5030770;28;51065;-62
2022/01/26 03:06:14;;;;;;;;;28.75;24.00;;;;;-147.17;100.00;50436.53;5019918;28;51119;-62
2022/01/26 03:08:44;;;;;;;;;34.50;30.75;;;;;-147.17;100.00;50450.31;5026756;28;51071;-62
2022/01/26 03:11:12;;;;;;;;;25.50;24.75;;;;;-147.17;100.00;50462.13;5017289;28;51620;-62
2022/01/26 03:13:44;;;;;;;;;26.50;25.00;;;;;-147.17;100.00;50460.16;5016113;28;51070;-61
2022/01/26 03:16:33;;;;;;;;;30.25;25.50;;;;;-147.17;100.00;50481.81;5018710;28;51086;-62
2022/01/26 03:19:04;;;;;;;;;27.25;24.00;;;;;-147.17;100.00;50491.66;5020856;28;51387;-62
2022/01/26 03:21:42;;;;;;;;;31.50;25.00;;;;;-147.17;100.00;50454.25;5019665;28;51764;-62
2022/01/26 03:34:26;;;;;;;;;29.75;27.75;;;;;-147.17;100.00;50477.88;5025871;28;51601;-61
2022/01/26 03:37:03;;;;;;;;;28.50;24.50;;;;;-147.17;100.00;50481.81;5017888;28;51593;-61
2022/01/26 03:39:30;;;;;;;;;17.50;16.50;;;;;-147.17;100.00;50462.13;5022207;28;51171;-63
2022/01/26 03:42:16;;;;;;;;;30.00;26.75;;;;;-147.17;100.00;50470.00;5028327;28;53023;-60
2022/01/26 03:44:42;;;;;;;;;24.50;21.75;;;;;-147.17;100.00;50452.28;5017133;28;51094;-61
2022/01/26 03:47:09;;;;;;;;;32.50;27.75;;;;;-147.17;100.00;50454.25;5017016;28;51372;-61
2022/01/26 03:49:35;;;;;;;;;29.00;28.75;;;;;-147.17;100.00;50442.44;5024171;28;51443;-61
2022/01/26 03:52:02;;;;;;;;;10.75;10.75;;;;;-147.17;100.00;50450.31;5032202;28;52089;-60
2022/01/26 03:54:28;;;;;;;;;26.25;25.00;;;;;-147.17;100.00;50454.25;5024653;28;51205;-60
2022/01/26 03:56:53;;;;;;;;;33.50;28.75;;;;;-147.17;100.00;50473.94;5031467;28;52682;-62
2022/01/26 03:59:18;;;;;;;;;41.00;36.50;;;;;-147.17;100.00;50458.19;5027433;28;51094;-60
2022/01/26 04:01:44;;;;;;;;;36.00;28.50;;;;;-147.17;100.00;50466.06;5019128;28;51872;-63
2022/01/26 04:04:10;;;;;;;;;38.50;34.00;;;;;-147.17;100.00;50448.34;5018484;28;51377;-61
2022/01/26 04:06:35;;;;;;;;;39.50;33.00;;;;;-147.17;100.00;50407.00;5021748;28;51039;-61
2022/01/26 04:09:04;;;;;;;;;45.25;39.50;;;;;-147.17;100.00;50440.47;5021293;28;51129;-61
2022/01/26 04:11:49;;;;;;;;;39.00;32.75;;;;;-147.17;100.00;50470.00;5021722;28;51913;-61
2022/01/26 04:14:19;;;;;;;;;41.50;38.25;;;;;-147.17;100.00;50450.31;5031441;28;51007;-61
2022/01/26 04:16:44;;;;;;;;;38.75;30.50;;;;;-147.17;100.00;50426.69;5023806;28;51051;-62
2022/01/26 04:19:10;;;;;;;;;45.00;39.00;;;;;-147.17;100.00;50462.13;5030789;28;50971;-62
2022/01/26 04:21:50;;;;;;;;;44.00;40.00;;;;;-147.17;100.00;50458.19;5032873;28;51717;-62
2022/01/26 04:24:24;;;;;;;;;50.75;40.00;;;;;-147.17;100.00;50481.81;5029602;28;51180;-65
2022/01/26 04:27:01;;;;;;;;;51.25;38.00;;;;;-147.17;100.00;50470.00;5013863;28;51003;-62
2022/01/26 04:29:30;;;;;;;;;42.50;37.25;;;;;-147.17;100.00;50481.81;5034011;28;51079;-62
2022/01/26 04:31:56;;;;;;;;;56.75;40.75;;;;;-147.17;100.00;50481.81;5031798;28;52062;-62
2022/01/26 04:34:21;;;;;;;;;47.50;40.75;;;;;-147.17;100.00;50462.13;5021191;28;51044;-61
2022/01/26 04:39:42;;;;;;;;;30.00;23.75;;;;;-147.17;100.00;50473.94;5011847;28;51202;-61
2022/01/26 04:42:20;;;;;;;;;43.25;38.75;;;;;-147.17;100.00;50450.31;5021853;28;54102;-62
2022/01/26 04:44:53;;;;;;;;;48.25;40.50;;;;;-147.17;100.00;50466.06;5029064;28;51307;-62
2022/01/26 04:47:19;;;;;;;;;47.75;42.50;;;;;-147.17;100.00;50497.56;5025748;28;50968;-61
2022/01/26 04:49:44;;;;;;;;;40.75;35.25;;;;;-147.17;100.00;50471.97;5013854;28;50995;-62
2022/01/26 04:52:10;;;;;;;;;50.25;42.00;;;;;-147.17;100.00;50473.94;5031319;28;51921;-62
2022/01/26 04:54:35;;;;;;;;;44.25;40.50;;;;;-147.17;100.00;50489.69;5028934;28;51284;-62
2022/01/26 04:57:00;;;;;;;;;50.00;42.75;;;;;-147.17;100.00;50501.50;5022635;28;51110;-61
2022/01/26 04:59:26;;;;;;;;;41.00;37.25;;;;;-147.17;100.00;50487.72;5013528;28;51385;-62
2022/01/26 05:01:51;;;;;;;;;46.75;39.00;;;;;-147.17;100.00;50466.06;5016656;28;50928;-61
2022/01/26 05:04:16;;;;;;;;;45.00;40.25;;;;;-147.17;100.00;50473.94;5022654;28;51378;-61
2022/01/26 05:06:42;;;;;;;;;43.50;40.00;;;;;-147.17;100.00;50507.41;5033241;28;51006;-61
2022/01/26 05:09:07;;;;;;;;;44.75;40.75;;;;;-147.17;100.00;50493.63;5027607;28;50992;-62
2022/01/26 05:11:39;;;;;;;;;46.75;40.25;;;;;-147.17;100.00;50505.44;5020733;28;51074;-60
2022/01/26 05:14:05;;;;;;;;;57.50;39.50;;;;;-147.17;100.00;50491.66;5024381;28;50983;-61
2022/01/26 05:16:31;;;;;;;;;48.75;42.25;;;;;-147.17;100.00;50497.56;5015100;28;51102;-61
2022/01/26 05:18:57;;;;;;;;;54.75;43.00;;;;;-147.17;100.00;50477.88;5021444;28;51200;-61
2022/01/26 05:21:24;;;;;;;;;45.00;38.50;;;;;-147.17;100.00;50481.81;5021298;28;52830;-61
2022/01/26 05:23:49;;;;;;;;;50.00;42.00;;;;;-147.17;100.00;50509.38;5021112;28;51042;-61
2022/01/26 05:26:15;;;;;;;;;42.25;38.50;;;;;-147.17;100.00;50497.56;5026133;28;50935;-61
2022/01/26 05:28:41;;;;;;;;;47.50;36.25;;;;;-147.17;100.00;50489.69;5023778;28;51240;-62
2022/01/26 05:31:06;;;;;;;;;45.50;39.50;;;;;-147.17;100.00;50509.38;5018364;28;51655;-62
2022/01/26 05:33:32;;;;;;;;;62.75;46.25;;;;;-147.17;100.00;50501.50;5027008;28;51331;-62
2022/01/26 05:35:57;;;;;;;;;47.75;41.50;;;;;-147.17;100.00;50525.13;5021602;28;51156;-61
2022/01/26 05:38:23;;;;;;;;;47.00;39.00;;;;;-147.17;100.00;50501.50;5020882;28;52159;-61
2022/01/26 05:40:50;;;;;;;;;54.75;43.75;;;;;-147.17;100.00;50501.50;5019331;28;53086;-62
2022/01/26 05:43:16;;;;;;;;;47.50;40.25;;;;;-147.17;100.00;50483.78;5025421;28;51307;-62
2022/01/26 05:45:43;;;;;;;;;47.25;39.75;;;;;-147.17;100.00;50493.63;5026747;28;51069;-61
2022/01/26 05:48:12;;;;;;;;;44.00;40.75;;;;;-147.17;100.00;50507.41;5031256;28;51113;-61
2022/01/26 05:50:38;;;;;;;;;42.50;39.25;;;;;-147.17;100.00;50493.63;5016019;28;52854;-62
2022/01/26 05:53:05;;;;;;;;;50.00;40.75;;;;;-147.17;100.00;50513.31;5013285;28;51388;-61
2022/01/26 05:55:30;;;;;;;;;52.50;41.75;;;;;-147.17;100.00;50513.31;5021051;28;51027;-62
2022/01/26 05:57:55;;;;;;;;;60.00;48.00;;;;;-147.17;100.00;50483.78;5028394;28;50953;-62
2022/01/26 06:00:22;;;;;;;;;57.00;45.25;;;;;-147.17;100.00;50485.75;5012111;28;51110;-61
2022/01/26 06:02:47;;;;;;;;;56.50;44.50;;;;;-147.17;100.00;50483.78;5015984;28;52811;-62
2022/01/26 06:05:13;;;;;;;;;56.75;45.50;;;;;-147.17;100.00;50489.69;5031423;28;51643;-62
2022/01/26 06:07:38;;;;;;;;;53.25;42.00;;;;;-147.17;100.00;50495.59;5031716;28;50877;-62
2022/01/26 06:10:04;;;;;;;;;64.00;50.00;;;;;-147.17;100.00;50491.66;5016216;28;51932;-62
2022/01/26 06:12:33;;;;;;;;;48.75;43.25;;;;;-147.17;100.00;50501.50;5023957;28;51283;-62
2022/01/26 06:15:00;;;;;;;;;53.50;43.25;;;;;-147.17;100.00;50515.28;5026156;28;51442;-63
2022/01/26 06:17:26;;;;;;;;;58.00;45.50;;;;;-147.17;100.00;50499.53;5029557;28;51350;-61
2022/01/26 06:19:51;;;;;;;;;47.00;42.00;;;;;-147.17;100.00;50497.56;5031136;28;51953;-61
2022/01/26 06:22:16;;;;;;;;;48.00;41.75;;;;;-147.17;100.00;50501.50;5031782;28;51214;-61
2022/01/26 06:24:42;;;;;;;;;49.25;41.75;;;;;-147.17;100.00;50515.28;5028796;28;51086;-60
2022/01/26 06:27:07;;;;;;;;;44.25;39.75;;;;;-147.17;100.00;50513.31;5028605;28;50932;-61
2022/01/26 06:29:33;;;;;;;;;45.00;37.50;;;;;-147.17;100.00;50507.41;5013786;28;52715;-62
2022/01/26 06:31:58;;;;;;;;;52.00;44.00;;;;;-147.17;100.00;50523.16;5026026;28;50997;-61
2022/01/26 06:34:24;;;;;;;;;56.25;46.00;;;;;-147.17;100.00;50483.78;5027849;28;51205;-62
2022/01/26 06:36:49;;;;;;;;;50.50;41.25;;;;;-147.17;100.00;50513.31;5021269;28;51046;-61
2022/01/26 06:39:15;;;;;;;;;46.00;40.75;;;;;-147.17;100.00;50491.66;5024389;28;51747;-61
2022/01/26 06:41:50;;;;;;;;;58.25;47.00;;;;;-147.17;100.00;50489.69;5020565;28;51988;-62
2022/01/26 06:44:23;;;;;;;;;56.25;43.75;;;;;-147.17;100.00;50489.69;5014724;28;51111;-60
2022/01/26 06:47:20;;;;;;;;;47.00;42.00;;;;;-147.17;100.00;50485.75;5028332;28;51010;-60
2022/01/26 06:49:46;;;;;;;;;46.00;40.25;;;;;-147.17;100.00;50499.53;5023436;28;51063;-60
2022/01/26 06:52:12;;;;;;;;;59.00;46.00;;;;;-147.17;100.00;50503.47;5011712;28;50949;-62
2022/01/26 06:54:37;;;;;;;;;57.50;45.25;;;;;-147.17;100.00;50485.75;5025290;28;51106;-61
2022/01/26 06:57:03;;;;;;;;;56.00;44.25;;;;;-147.17;100.00;50517.25;5028989;28;51337;-61
2022/01/26 06:59:28;;;;;;;;;53.50;44.75;;;;;-147.17;100.00;50493.63;5026569;28;51383;-61
2022/01/26 07:01:53;;;;;;;;;61.50;43.75;;;;;-147.17;100.00;50529.06;5015964;28;51733;-61
2022/01/26 07:04:19;;;;;;;;;53.25;44.25;;;;;-147.17;100.00;50466.06;5028214;28;51203;-65
2022/01/26 07:06:44;;;;;;;;;53.00;45.50;;;;;-147.17;100.00;50485.75;5032014;28;51234;-61
2022/01/26 07:09:10;;;;;;;;;55.00;42.25;;;;;-147.17;100.00;50485.75;5024298;28;51679;-61
2022/01/26 07:11:35;;;;;;;;;60.25;46.00;;;;;-147.17;100.00;50525.13;5032247;28;51127;-61
2022/01/26 07:14:03;;;;;;;;;51.25;42.75;;;;;-147.17;100.00;50505.44;5030671;28;51041;-61
2022/01/26 07:21:57;;;;;;;;;60.00;48.50;;;;;-147.17;100.00;50505.44;5024272;28;51007;-61
2022/01/26 07:24:22;;;;;;;;;55.25;45.25;;;;;-147.17;100.00;50493.63;5026984;28;50932;-62
2022/01/26 07:26:52;;;;;;;;;59.50;48.75;;;;;-147.17;100.00;50489.69;5030792;28;50950;-62
2022/01/26 07:29:22;;;;;;;;;55.25;44.50;;;;;-147.17;100.00;50521.19;5016493;28;52293;-61
2022/01/26 07:31:48;;;;;;;;;49.25;42.00;;;;;-147.17;100.00;50495.59;5023795;28;51198;-61
2022/01/26 07:34:14;;;;;;;;;57.75;44.50;;;;;-147.17;100.00;50525.13;5031866;28;51289;-61
2022/01/26 07:36:41;;;;;;;;;58.25;46.75;;;;;-147.17;100.00;50493.63;5022875;28;51262;-61
2022/01/26 07:39:12;;;;;;;;;54.00;44.00;;;;;-147.17;100.00;50501.50;5018062;28;51898;-61
2022/01/26 07:41:37;;;;;;;;;60.50;46.00;;;;;-147.17;100.00;50521.19;5023193;28;51709;-61
2022/01/26 07:44:04;;;;;;;;;60.50;48.75;;;;;-147.17;100.00;50485.75;5023713;28;53604;-60
2022/01/26 07:46:29;;;;;;;;;49.25;43.00;;;;;-147.17;100.00;50517.25;5025945;28;51217;-62
2022/01/26 07:48:55;;;;;;;;;58.50;46.75;;;;;-147.17;100.00;50515.28;5018742;28;51814;-61
2022/01/26 07:51:20;;;;;;;;;55.50;46.00;;;;;-147.17;100.00;50499.53;5024378;28;51128;-60
2022/01/26 07:53:46;;;;;;;;;57.00;46.75;;;;;-147.17;100.00;50521.19;5026989;28;50961;-60
2022/01/26 07:56:12;;;;;;;;;49.25;40.25;;;;;-147.17;100.00;50515.28;5026114;28;51400;-60
2022/01/26 07:58:37;;;;;;;;;50.00;43.00;;;;;-147.17;100.00;50533.00;5013918;28;51881;-60
2022/01/26 08:01:03;;;;;;;;;42.75;35.00;;;;;-147.17;100.00;50517.25;5022794;28;51212;-61
2022/01/26 08:03:33;;;;;;;;;60.00;47.50;;;;;-147.17;100.00;50501.50;5026697;28;51225;-61
2022/01/26 08:06:03;;;;;;;;;52.25;43.00;;;;;-147.17;100.00;50485.75;5029528;28;51051;-60
2022/01/26 08:08:29;;;;;;;;;64.75;50.75;;;;;-147.17;100.00;50493.63;5020129;28;51022;-60
2022/01/26 08:10:58;;;;;;;;;60.00;47.50;;;;;-147.17;100.00;50497.56;5017499;28;52502;-59
2022/01/26 08:13:24;;;;;;;;;60.75;46.75;;;;;-147.17;100.00;50519.22;5014861;28;51348;-59
2022/01/26 08:15:50;;;;;;;;;56.00;46.00;;;;;-147.17;100.00;50507.41;5030974;28;50825;-61
2022/01/26 08:18:16;;;;;;;;;41.75;38.00;;;;;-147.17;100.00;50538.91;5018777;28;51931;-59
2022/01/26 08:20:41;;;;;;;;;44.75;36.50;;;;;-147.17;100.00;50519.22;5028412;28;51145;-61
2022/01/26 08:23:08;;;;;;;;;54.50;45.75;;;;;-147.17;100.00;50509.38;5014911;28;51199;-61
2022/01/26 08:25:33;;;;;;;;;44.75;36.75;;;;;-147.17;100.00;50499.53;5019271;28;51427;-61
2022/01/26 08:28:16;;;;;;;;;50.00;40.25;;;;;-147.17;100.00;50483.78;5031123;28;51189;-61
2022/01/26 08:30:42;;;;;;;;;46.25;39.25;;;;;-147.17;100.00;50489.69;5016797;28;51485;-64
2022/01/26 08:33:08;;;;;;;;;38.25;33.25;;;;;-147.17;100.00;50495.59;5014592;28;51043;-61
2022/01/26 08:35:34;;;;;;;;;55.00;45.50;;;;;-147.17;100.00;50499.53;5024620;28;51179;-62
2022/01/26 08:38:00;;;;;;;;;96.50;78.50;;;;;-147.17;100.00;50509.38;5013622;28;52125;-61
2022/01/26 08:40:26;;;;;;;;;45.50;38.00;;;;;-147.17;100.00;50525.13;5021445;28;51680;-61
2022/01/26 08:42:53;;;;;;;;;45.25;41.25;;;;;-147.17;100.00;50503.47;5026134;28;51349;-61
2022/01/26 08:45:18;;;;;;;;;55.75;45.50;;;;;-147.17;100.00;50499.53;5032139;28;50948;-61
2022/01/26 08:47:44;;;;;;;;;51.00;41.50;;;;;-147.17;100.00;50485.75;5016106;28;51598;-62
2022/01/26 08:50:10;;;;;;;;;55.00;43.25;;;;;-147.17;100.00;50485.75;5021976;28;51073;-62
2022/01/26 08:52:36;;;;;;;;;43.75;39.75;;;;;-147.17;100.00;50481.81;5031841;28;51001;-61
2022/01/26 08:55:03;;;;;;;;;50.25;41.75;;;;;-147.17;100.00;50485.75;5019506;28;51267;-61
2022/01/26 08:57:29;;;;;;;;;45.00;38.25;;;;;-147.17;100.00;50499.53;5012275;28;52615;-62
2022/01/26 08:59:54;;;;;;;;;51.75;44.75;;;;;-147.17;100.00;50481.81;5021579;28;51062;-61
2022/01/26 09:02:20;;;;;;;;;48.25;39.25;;;;;-147.17;100.00;50473.94;5016229;28;51051;-61
2022/01/26 09:04:45;;;;;;;;;37.75;34.00;;;;;-147.17;100.00;50497.56;5030136;28;51323;-61
2022/01/26 09:07:14;;;;;;;;;43.50;38.75;;;;;-147.17;100.00;50483.78;5027969;28;51961;-61
2022/01/26 09:09:45;;;;;;;;;52.50;41.25;;;;;-147.17;100.00;50481.81;5026316;28;51335;-61
2022/01/26 09:12:13;;;;;;;;;58.25;46.00;;;;;-147.17;100.00;50497.56;5031499;28;51051;-60
2022/01/26 09:14:38;;;;;;;;;50.50;42.00;;;;;-147.17;100.00;50462.13;5027616;28;50975;-61
2022/01/26 09:17:05;;;;;;;;;57.75;44.50;;;;;-147.17;100.00;50501.50;5032825;28;51879;-61
2022/01/26 09:19:32;;;;;;;;;59.25;48.50;;;;;-147.17;100.00;50497.56;5031919;28;51036;-61
2022/01/26 09:22:01;;;;;;;;;60.25;48.25;;;;;-147.17;100.00;50495.59;5032664;28;51347;-61
2022/01/26 09:24:28;;;;;;;;;52.50;44.50;;;;;-147.17;100.00;50507.41;5028045;28;51076;-61
2022/01/26 09:26:54;;;;;;;;;57.50;43.00;;;;;-147.17;100.00;50497.56;5015094;28;52681;-61
2022/01/26 09:29:20;;;;;;;;;60.25;48.25;;;;;-147.17;100.00;50517.25;5018964;28;50929;-61
2022/01/26 09:31:47;;;;;;;;;64.00;51.75;;;;;-147.17;100.00;50495.59;5026922;28;51257;-60
2022/01/26 09:34:18;;;;;;;;;56.50;47.00;;;;;-147.17;100.00;50499.53;5030914;28;51300;-62
2022/01/26 09:36:44;;;;;;;;;57.00;46.50;;;;;-147.17;100.00;50525.13;5015758;28;51777;-62
2022/01/26 09:39:11;;;;;;;;;69.25;54.25;;;;;-147.17;100.00;50529.06;5012266;28;51403;-61
2022/01/26 09:41:38;;;;;;;;;60.75;46.00;;;;;-147.17;100.00;50499.53;5015550;28;51124;-62
2022/01/26 09:44:04;;;;;;;;;63.25;50.75;;;;;-147.17;100.00;50485.75;5012447;28;51090;-61
2022/01/26 09:46:30;;;;;;;;;60.75;46.50;;;;;-147.17;100.00;50525.13;5027448;28;51844;-61
2022/01/26 09:48:55;;;;;;;;;58.00;47.50;;;;;-147.17;100.00;50536.94;5031825;28;51143;-62
2022/01/26 09:51:21;;;;;;;;;59.75;48.75;;;;;-147.17;100.00;50521.19;5026547;28;51217;-61
2022/01/26 09:54:02;;;;;;;;;45.25;41.00;;;;;-147.17;100.00;50495.59;5027240;28;51113;-62
2022/01/26 09:56:27;;;;;;;;;60.75;49.25;;;;;-147.17;100.00;50521.19;5026852;28;53013;-62
2022/01/26 09:58:53;;;;;;;;;56.00;46.50;;;;;-147.17;100.00;50501.50;5015066;28;51139;-62
2022/01/26 10:01:18;;;;;;;;;60.25;47.75;;;;;-147.17;100.00;50533.00;5011938;28;51143;-61
2022/01/26 10:03:45;;;;;;;;;57.75;46.50;;;;;-147.17;100.00;50533.00;5014182;28;51144;-62
2022/01/26 10:06:21;;;;;;;;;54.50;43.50;;;;;-147.17;100.00;50505.44;5015106;28;53395;-61
2022/01/26 10:18:58;;;;;;;;;64.25;51.75;;;;;-147.17;100.00;50529.06;5020754;28;51146;-60
2022/01/26 10:21:24;;;;;;;;;51.00;41.75;;;;;-147.17;100.00;50554.66;5023494;28;51231;-62
2022/01/26 10:23:52;;;;;;;;;61.50;47.25;;;;;-147.17;100.00;50495.59;5011721;28;51214;-62
2022/01/26 10:26:19;;;;;;;;;58.75;48.75;;;;;-147.17;100.00;50542.84;5010862;28;51777;-62
2022/01/26 10:28:54;;;;;;;;;71.00;54.00;;;;;-147.17;100.00;50536.94;5013334;28;51388;-60
2022/01/26 10:31:29;;;;;;;;;54.50;38.25;;;;;-147.17;100.00;50548.75;5017998;28;51063;-61
2022/01/26 10:33:57;;;;;;;;;44.75;38.75;;;;;-147.17;100.00;50538.91;5029608;28;51341;-61
2022/01/26 10:36:50;;;;;;;;;57.00;47.50;;;;;-147.17;100.00;50540.88;5028963;28;53985;-61
2022/01/26 10:39:38;;;;;;;;;63.75;49.50;;;;;-147.17;100.00;50536.94;5025280;28;51327;-61
2022/01/26 10:42:07;;;;;;;;;60.00;47.00;;;;;-147.17;100.00;50505.44;5014761;28;51054;-62
2022/01/26 10:45:08;;;;;;;;;57.75;45.75;;;;;-147.17;100.00;50509.38;5015218;28;51509;-61
2022/01/26 10:47:33;;;;;;;;;60.75;45.75;;;;;-147.17;100.00;50529.06;5020934;28;51773;-61
2022/01/26 10:50:29;;;;;;;;;60.75;50.75;;;;;-147.17;100.00;50509.38;5022729;28;51424;-62
2022/01/26 10:52:56;;;;;;;;;55.00;46.00;;;;;-147.17;100.00;50529.06;5022852;28;51010;-60
2022/01/26 10:55:22;;;;;;;;;51.25;43.25;;;;;-147.17;100.00;50531.03;5032865;28;51243;-61
2022/01/26 10:57:48;;;;;;;;;53.00;44.50;;;;;-147.17;100.00;50517.25;5023444;28;53200;-61
2022/01/26 11:00:14;;;;;;;;;54.50;44.25;;;;;-147.17;100.00;50521.19;5014193;28;51031;-62
2022/01/26 11:02:41;;;;;;;;;62.00;49.25;;;;;-147.17;100.00;50519.22;5029456;28;51293;-61
2022/01/26 11:05:07;;;;;;;;;42.00;38.25;;;;;-147.17;100.00;50558.59;5034253;28;51209;-61
2022/01/26 11:07:40;;;;;;;;;53.00;41.25;;;;;-147.17;100.00;50534.97;5033765;28;52605;-61
2022/01/26 11:10:08;;;;;;;;;43.75;39.25;;;;;-147.17;100.00;50546.78;5030875;28;51187;-60
2022/01/26 11:12:39;;;;;;;;;59.25;44.75;;;;;-147.17;100.00;50540.88;5023084;28;51012;-61
2022/01/26 11:15:13;;;;;;;;;53.50;44.00;;;;;-147.17;100.00;50505.44;5019241;28;51250;-62
2022/01/26 11:17:46;;;;;;;;;57.50;46.25;;;;;-147.17;100.00;50550.72;5026119;28;53622;-62
2022/01/26 11:20:30;;;;;;;;;57.25;44.25;;;;;-147.17;100.00;50534.97;5024307;28;51118;-62
2022/01/26 11:22:58;;;;;;;;;44.50;38.00;;;;;-147.17;100.00;50544.81;5029835;28;51350;-61
2022/01/26 11:25:27;;;;;;;;;51.25;40.50;;;;;-147.17;100.00;50523.16;5021031;28;51480;-62
2022/01/26 11:27:54;;;;;;;;;67.50;48.50;;;;;-147.17;100.00;50536.94;5017203;28;52085;-63
2022/01/26 11:30:25;;;;;;;;;60.25;46.50;;;;;-147.17;100.00;50533.00;5014322;28;50953;-62
2022/01/26 11:32:56;;;;;;;;;58.00;46.25;;;;;-147.17;100.00;50552.69;5030438;28;51190;-62
2022/01/26 11:35:24;;;;;;;;;58.50;47.00;;;;;-147.17;100.00;50560.56;5023823;28;50866;-61
2022/01/26 11:38:17;;;;;;;;;56.00;44.75;;;;;-147.17;100.00;50525.13;5034144;28;52778;-62
2022/01/26 11:46:25;;;;;;;;;56.25;45.25;;;;;-147.17;100.00;50560.56;5025977;28;51232;-62
2022/01/26 11:49:05;;;;;;;;;50.50;41.00;;;;;-147.17;100.00;50538.91;5024670;28;51219;-64
2022/01/26 11:51:42;;;;;;;;;53.50;41.75;;;;;-147.17;100.00;50540.88;5028448;28;52282;-67
2022/01/26 11:54:16;;;;;;;;;41.00;37.00;;;;;-147.17;100.00;50568.44;5016064;28;51058;-63
2022/01/26 11:57:01;;;;;;;;;48.75;41.75;;;;;-147.17;100.00;50562.53;5025095;28;50985;-64
2022/01/26 11:59:30;;;;;;;;;48.25;38.75;;;;;-147.17;100.00;50517.25;5022324;28;51843;-66
2022/01/26 12:02:01;;;;;;;;;43.00;36.25;;;;;-147.17;100.00;50564.50;5016563;28;52437;-64
2022/01/26 12:04:30;;;;;;;;;56.00;43.75;;;;;-147.17;100.00;50538.91;5036261;28;51028;-66
2022/01/26 12:07:09;;;;;;;;;41.75;34.25;;;;;-147.17;100.00;50536.94;5030249;28;51368;-64
2022/01/26 12:09:34;;;;;;;;;44.25;39.75;;;;;-147.17;100.00;50538.91;5034607;28;52112;-63
2022/01/26 12:12:00;;;;;;;;;45.75;41.00;;;;;-147.17;100.00;50538.91;5035724;28;51122;-61
2022/01/26 12:14:25;;;;;;;;;55.75;41.25;;;;;-147.17;100.00;50564.50;5033924;28;51125;-61
2022/01/26 12:16:54;;;;;;;;;32.75;30.25;;;;;-147.17;100.00;50546.78;5024633;28;51102;-62
2022/01/26 12:35:54;;;;;;;;;49.75;41.00;;;;;-147.17;100.00;50548.75;5028756;28;51113;-62
2022/01/26 12:43:39;;;;;;;;;50.75;39.75;;;;;-147.17;100.00;50566.47;5025268;28;51102;-64
2022/01/26 12:46:14;;;;;;;;;50.00;43.25;;;;;-147.17;100.00;50572.38;5027383;28;50881;-63
2022/01/26 12:48:42;;;;;;;;;54.25;44.00;;;;;-147.17;100.00;50560.56;5031325;28;50988;-63
2022/01/26 12:51:09;;;;;;;;;56.75;44.50;;;;;-147.17;100.00;50592.06;5028785;28;51888;-64
2022/01/26 12:53:38;;;;;;;;;48.25;41.75;;;;;-147.17;100.00;50536.94;5032843;28;51125;-63
2022/01/26 12:56:11;;;;;;;;;48.75;40.75;;;;;-147.17;100.00;50576.31;5013339;28;51176;-62
2022/01/26 12:58:38;;;;;;;;;51.25;43.50;;;;;-147.17;100.00;50601.91;5032517;28;51257;-63
2022/01/26 13:01:07;;;;;;;;;52.25;43.00;;;;;-147.17;100.00;50540.88;5028764;28;51127;-63
2022/01/26 13:03:37;;;;;;;;;54.75;44.75;;;;;-147.17;100.00;50538.91;5021303;28;51001;-63
2022/01/26 13:06:18;;;;;;;;;54.25;44.25;;;;;-147.17;100.00;50533.00;5028446;28;51272;-63
2022/01/26 13:08:53;;;;;;;;;51.25;43.00;;;;;-147.17;100.00;50572.38;5019682;28;51124;-64